Vilna, Canada
Current Conditions -  °F | °C
As of 2:00 AM on Saturday 25 Oct 2014 (Local Time) from CYOD Reporting Station
Clear Clear  
Wind Chill: 27°   Ceiling: Unl
Heat Index: 34°   Visibility: 15mi
Dew Point: 27°   Wind: 8mph
Humidity: 75%   Direction: 250°WSW
Pressure: 29.94"   Gusts: NA
Location:  54.12°N, 111.92°W
Report Text: CYOD 250800Z 25007KT 15SM SKC 01/M03 A2994 RMK SLP160
Loading
Personal Weather Stations






























Interactive Weather Map
Tropical Storm Tracking
New forecast layout! Learn more

10-Day Weather Forecast

Advertisements
Track Severe Weather on mobile